sensor_id;sensor_type;location;lat;lon;timestamp;P1;durP1;ratioP1;P2;durP2;ratioP2
25443;SDS011;13368;52.346;4.678;2023-05-15T00:00:00;26.1;;;15.3;;
25443;SDS011;13368;52.346;4.678;2023-05-15T00:05:00;26.9;;;14.8;;
25443;SDS011;13368;52.346;4.678;2023-05-15T00:10:00;24.9;;;14.5;;
25443;SDS011;13368;52.346;4.678;2023-05-15T00:15:00;25.8;;;14.2;;
25443;SDS011;13368;52.346;4.678;2023-05-15T00:20:00;26.1;;;13.8;;
25443;SDS011;13368;52.346;4.678;2023-05-15T00:25:00;23.4;;;14.2;;
25443;SDS011;13368;52.346;4.678;2023-05-15T00:30:00;22.3;;;14.2;;
25443;SDS011;13368;52.346;4.678;2023-05-15T00:35:00;25.2;;;14.5;;
25443;SDS011;13368;52.346;4.678;2023-05-15T00:40:00;22.9;;;12.9;;
25443;SDS011;13368;52.346;4.678;2023-05-15T00:45:00;23.7;;;14.3;;
25443;SDS011;13368;52.346;4.678;2023-05-15T00:50:00;22.2;;;13.6;;
25443;SDS011;13368;52.346;4.678;2023-05-15T00:55:00;21.9;;;12.9;;
25443;SDS011;13368;52.346;4.678;2023-05-15T01:00:00;18.7;;;12.6;;
25443;SDS011;13368;52.346;4.678;2023-05-15T01:05:00;21.5;;;12.7;;
25443;SDS011;13368;52.346;4.678;2023-05-15T01:10:01;21.2;;;11.7;;
25443;SDS011;13368;52.346;4.678;2023-05-15T01:15:00;22.2;;;12.1;;
25443;SDS011;13368;52.346;4.678;2023-05-15T01:20:00;19.5;;;11.9;;
25443;SDS011;13368;52.346;4.678;2023-05-15T01:25:06;19.4;;;11.1;;
25443;SDS011;13368;52.346;4.678;2023-05-15T01:30:01;15.5;;;10.2;;
25443;SDS011;13368;52.346;4.678;2023-05-15T01:35:02;15.2;;;10.2;;
25443;SDS011;13368;52.346;4.678;2023-05-15T01:40:01;18.8;;;11.3;;
25443;SDS011;13368;52.346;4.678;2023-05-15T01:45:00;19.2;;;10.8;;
25443;SDS011;13368;52.346;4.678;2023-05-15T01:50:00;16.4;;;11.3;;
25443;SDS011;13368;52.346;4.678;2023-05-15T01:55:00;16.2;;;10.0;;
25443;SDS011;13368;52.346;4.678;2023-05-15T02:00:00;16.6;;;9.9;;
25443;SDS011;13368;52.346;4.678;2023-05-15T02:05:00;15.2;;;10.1;;
25443;SDS011;13368;52.346;4.678;2023-05-15T02:10:00;13.8;;;9.8;;
25443;SDS011;13368;52.346;4.678;2023-05-15T02:15:00;14.5;;;9.9;;
25443;SDS011;13368;52.346;4.678;2023-05-15T02:20:00;15.1;;;10.0;;
25443;SDS011;13368;52.346;4.678;2023-05-15T02:25:00;14.9;;;9.7;;
25443;SDS011;13368;52.346;4.678;2023-05-15T02:30:02;15.3;;;9.8;;
25443;SDS011;13368;52.346;4.678;2023-05-15T02:35:02;14.8;;;10.2;;
25443;SDS011;13368;52.346;4.678;2023-05-15T02:40:00;16.5;;;10.1;;
25443;SDS011;13368;52.346;4.678;2023-05-15T02:45:00;13.2;;;9.8;;
25443;SDS011;13368;52.346;4.678;2023-05-15T02:50:00;15.2;;;10.1;;
25443;SDS011;13368;52.346;4.678;2023-05-15T02:55:00;16.4;;;10.8;;
25443;SDS011;13368;52.346;4.678;2023-05-15T03:00:00;17.8;;;11.4;;
25443;SDS011;13368;52.346;4.678;2023-05-15T03:05:00;23.7;;;15.6;;
25443;SDS011;13368;52.346;4.678;2023-05-15T03:10:00;21.1;;;13.0;;
25443;SDS011;13368;52.346;4.678;2023-05-15T03:15:00;21.7;;;13.9;;
25443;SDS011;13368;52.346;4.678;2023-05-15T03:20:00;24.3;;;14.8;;
25443;SDS011;13368;52.346;4.678;2023-05-15T03:25:00;23.9;;;15.0;;
25443;SDS011;13368;52.346;4.678;2023-05-15T03:30:00;20.7;;;13.7;;
25443;SDS011;13368;52.346;4.678;2023-05-15T03:35:00;21.9;;;13.4;;
25443;SDS011;13368;52.346;4.678;2023-05-15T03:40:00;19.1;;;12.8;;
25443;SDS011;13368;52.346;4.678;2023-05-15T03:45:00;22.8;;;12.7;;
25443;SDS011;13368;52.346;4.678;2023-05-15T03:50:00;16.9;;;11.9;;
25443;SDS011;13368;52.346;4.678;2023-05-15T03:55:00;21.3;;;13.8;;
25443;SDS011;13368;52.346;4.678;2023-05-15T04:00:00;21.0;;;13.4;;
25443;SDS011;13368;52.346;4.678;2023-05-15T04:05:00;21.9;;;13.4;;
25443;SDS011;13368;52.346;4.678;2023-05-15T04:10:00;22.1;;;14.7;;
25443;SDS011;13368;52.346;4.678;2023-05-15T04:20:00;28.3;;;15.7;;
25443;SDS011;13368;52.346;4.678;2023-05-15T04:25:00;21.3;;;14.8;;
25443;SDS011;13368;52.346;4.678;2023-05-15T04:30:00;23.9;;;15.3;;
25443;SDS011;13368;52.346;4.678;2023-05-15T04:35:00;25.5;;;16.0;;
25443;SDS011;13368;52.346;4.678;2023-05-15T04:40:00;22.3;;;14.2;;
25443;SDS011;13368;52.346;4.678;2023-05-15T04:45:00;21.5;;;13.5;;
25443;SDS011;13368;52.346;4.678;2023-05-15T04:50:00;18.7;;;11.8;;
25443;SDS011;13368;52.346;4.678;2023-05-15T04:55:00;20.0;;;13.0;;
25443;SDS011;13368;52.346;4.678;2023-05-15T05:00:00;18.2;;;11.4;;
25443;SDS011;13368;52.346;4.678;2023-05-15T05:05:00;18.8;;;12.2;;
25443;SDS011;13368;52.346;4.678;2023-05-15T05:10:00;20.6;;;12.0;;
25443;SDS011;13368;52.346;4.678;2023-05-15T05:15:00;21.8;;;13.1;;
25443;SDS011;13368;52.346;4.678;2023-05-15T05:20:00;22.2;;;14.2;;
25443;SDS011;13368;52.346;4.678;2023-05-15T05:25:00;22.4;;;13.8;;
25443;SDS011;13368;52.346;4.678;2023-05-15T05:30:00;26.7;;;15.5;;
25443;SDS011;13368;52.346;4.678;2023-05-15T05:35:00;28.7;;;16.0;;
25443;SDS011;13368;52.346;4.678;2023-05-15T05:40:00;29.4;;;15.8;;
25443;SDS011;13368;52.346;4.678;2023-05-15T05:45:00;26.2;;;15.6;;
25443;SDS011;13368;52.346;4.678;2023-05-15T05:50:00;31.9;;;16.4;;
25443;SDS011;13368;52.346;4.678;2023-05-15T05:55:00;29.2;;;16.4;;
25443;SDS011;13368;52.346;4.678;2023-05-15T06:00:00;29.5;;;17.2;;
25443;SDS011;13368;52.346;4.678;2023-05-15T06:05:00;32.2;;;18.3;;
25443;SDS011;13368;52.346;4.678;2023-05-15T06:10:00;33.7;;;18.8;;
25443;SDS011;13368;52.346;4.678;2023-05-15T06:15:00;30.0;;;16.4;;
25443;SDS011;13368;52.346;4.678;2023-05-15T06:20:00;34.2;;;18.4;;
25443;SDS011;13368;52.346;4.678;2023-05-15T06:25:00;34.1;;;19.0;;
25443;SDS011;13368;52.346;4.678;2023-05-15T06:30:00;35.6;;;18.1;;
25443;SDS011;13368;52.346;4.678;2023-05-15T06:35:00;33.6;;;18.4;;
25443;SDS011;13368;52.346;4.678;2023-05-15T06:40:00;33.3;;;18.5;;
25443;SDS011;13368;52.346;4.678;2023-05-15T06:45:00;36.2;;;19.9;;
25443;SDS011;13368;52.346;4.678;2023-05-15T06:50:00;34.4;;;18.8;;
25443;SDS011;13368;52.346;4.678;2023-05-15T06:55:00;34.5;;;19.8;;
25443;SDS011;13368;52.346;4.678;2023-05-15T07:00:00;37.5;;;18.8;;
25443;SDS011;13368;52.346;4.678;2023-05-15T07:05:00;32.4;;;18.9;;
25443;SDS011;13368;52.346;4.678;2023-05-15T07:10:00;37.6;;;19.5;;
25443;SDS011;13368;52.346;4.678;2023-05-15T07:15:00;32.9;;;18.9;;
25443;SDS011;13368;52.346;4.678;2023-05-15T07:20:00;38.2;;;19.6;;
25443;SDS011;13368;52.346;4.678;2023-05-15T07:25:00;31.5;;;18.4;;
25443;SDS011;13368;52.346;4.678;2023-05-15T07:30:00;31.6;;;17.5;;
25443;SDS011;13368;52.346;4.678;2023-05-15T07:35:00;32.9;;;17.2;;
25443;SDS011;13368;52.346;4.678;2023-05-15T07:40:00;32.8;;;17.7;;
25443;SDS011;13368;52.346;4.678;2023-05-15T07:45:00;29.3;;;17.5;;
25443;SDS011;13368;52.346;4.678;2023-05-15T07:50:00;28.5;;;16.8;;
25443;SDS011;13368;52.346;4.678;2023-05-15T07:55:00;30.1;;;18.1;;
25443;SDS011;13368;52.346;4.678;2023-05-15T08:00:00;30.5;;;16.9;;
25443;SDS011;13368;52.346;4.678;2023-05-15T08:05:00;31.7;;;17.7;;
25443;SDS011;13368;52.346;4.678;2023-05-15T08:10:00;28.8;;;16.1;;
25443;SDS011;13368;52.346;4.678;2023-05-15T08:15:00;34.6;;;17.3;;
25443;SDS011;13368;52.346;4.678;2023-05-15T08:20:00;30.9;;;17.1;;
25443;SDS011;13368;52.346;4.678;2023-05-15T08:25:00;31.9;;;17.8;;
25443;SDS011;13368;52.346;4.678;2023-05-15T08:30:00;29.9;;;17.5;;
25443;SDS011;13368;52.346;4.678;2023-05-15T08:35:00;30.7;;;17.3;;
25443;SDS011;13368;52.346;4.678;2023-05-15T08:40:00;29.3;;;17.2;;
25443;SDS011;13368;52.346;4.678;2023-05-15T08:45:00;29.6;;;17.1;;
25443;SDS011;13368;52.346;4.678;2023-05-15T08:50:01;30.0;;;17.2;;
25443;SDS011;13368;52.346;4.678;2023-05-15T08:55:00;30.2;;;17.9;;
25443;SDS011;13368;52.346;4.678;2023-05-15T09:00:00;27.4;;;17.0;;
25443;SDS011;13368;52.346;4.678;2023-05-15T09:05:00;28.9;;;17.4;;
25443;SDS011;13368;52.346;4.678;2023-05-15T09:10:00;26.6;;;16.1;;
25443;SDS011;13368;52.346;4.678;2023-05-15T09:15:07;24.4;;;15.8;;
25443;SDS011;13368;52.346;4.678;2023-05-15T09:20:00;32.4;;;15.8;;
25443;SDS011;13368;52.346;4.678;2023-05-15T09:25:00;30.0;;;17.1;;
25443;SDS011;13368;52.346;4.678;2023-05-15T09:30:07;27.6;;;15.8;;
25443;SDS011;13368;52.346;4.678;2023-05-15T09:35:00;30.2;;;16.4;;
25443;SDS011;13368;52.346;4.678;2023-05-15T09:40:06;26.8;;;15.9;;
25443;SDS011;13368;52.346;4.678;2023-05-15T09:45:00;24.4;;;15.2;;
25443;SDS011;13368;52.346;4.678;2023-05-15T09:50:00;24.2;;;14.9;;
25443;SDS011;13368;52.346;4.678;2023-05-15T09:55:00;23.6;;;14.7;;
25443;SDS011;13368;52.346;4.678;2023-05-15T10:00:00;24.7;;;14.6;;
25443;SDS011;13368;52.346;4.678;2023-05-15T10:05:00;25.1;;;15.5;;
25443;SDS011;13368;52.346;4.678;2023-05-15T10:10:00;24.0;;;14.2;;
25443;SDS011;13368;52.346;4.678;2023-05-15T10:15:00;20.8;;;13.2;;
25443;SDS011;13368;52.346;4.678;2023-05-15T10:20:00;21.1;;;12.9;;
25443;SDS011;13368;52.346;4.678;2023-05-15T10:25:02;20.6;;;12.4;;
25443;SDS011;13368;52.346;4.678;2023-05-15T10:30:00;21.1;;;12.4;;
25443;SDS011;13368;52.346;4.678;2023-05-15T10:35:00;19.3;;;11.9;;
25443;SDS011;13368;52.346;4.678;2023-05-15T10:40:00;19.1;;;11.3;;
25443;SDS011;13368;52.346;4.678;2023-05-15T10:45:00;18.2;;;9.5;;
25443;SDS011;13368;52.346;4.678;2023-05-15T10:50:00;12.3;;;8.2;;
25443;SDS011;13368;52.346;4.678;2023-05-15T10:55:00;12.9;;;8.2;;
25443;SDS011;13368;52.346;4.678;2023-05-15T11:00:00;11.7;;;7.9;;
25443;SDS011;13368;52.346;4.678;2023-05-15T11:05:00;16.3;;;8.3;;
25443;SDS011;13368;52.346;4.678;2023-05-15T11:10:08;15.7;;;8.9;;
25443;SDS011;13368;52.346;4.678;2023-05-15T11:20:00;17.8;;;10.2;;
25443;SDS011;13368;52.346;4.678;2023-05-15T11:25:00;19.2;;;11.0;;
25443;SDS011;13368;52.346;4.678;2023-05-15T11:30:05;22.3;;;12.1;;
25443;SDS011;13368;52.346;4.678;2023-05-15T11:35:00;21.2;;;11.3;;
25443;SDS011;13368;52.346;4.678;2023-05-15T11:40:00;16.6;;;10.3;;
25443;SDS011;13368;52.346;4.678;2023-05-15T11:45:00;16.6;;;7.7;;
25443;SDS011;13368;52.346;4.678;2023-05-15T11:50:01;13.9;;;8.0;;
25443;SDS011;13368;52.346;4.678;2023-05-15T11:55:00;12.0;;;6.4;;
25443;SDS011;13368;52.346;4.678;2023-05-15T12:00:00;9.2;;;5.6;;
25443;SDS011;13368;52.346;4.678;2023-05-15T12:05:00;7.9;;;5.0;;
25443;SDS011;13368;52.346;4.678;2023-05-15T12:10:00;10.4;;;5.5;;
25443;SDS011;13368;52.346;4.678;2023-05-15T12:15:00;8.0;;;5.2;;
25443;SDS011;13368;52.346;4.678;2023-05-15T12:20:00;9.7;;;5.0;;
25443;SDS011;13368;52.346;4.678;2023-05-15T12:25:00;9.4;;;4.7;;
25443;SDS011;13368;52.346;4.678;2023-05-15T12:30:00;11.0;;;4.9;;
25443;SDS011;13368;52.346;4.678;2023-05-15T12:35:00;9.3;;;4.4;;
25443;SDS011;13368;52.346;4.678;2023-05-15T12:40:00;8.1;;;4.6;;
25443;SDS011;13368;52.346;4.678;2023-05-15T12:45:00;10.8;;;4.7;;
25443;SDS011;13368;52.346;4.678;2023-05-15T12:50:00;11.5;;;4.7;;
25443;SDS011;13368;52.346;4.678;2023-05-15T12:55:00;9.4;;;4.6;;
25443;SDS011;13368;52.346;4.678;2023-05-15T13:00:00;7.8;;;4.1;;
25443;SDS011;13368;52.346;4.678;2023-05-15T13:05:00;8.3;;;4.4;;
25443;SDS011;13368;52.346;4.678;2023-05-15T13:10:01;9.5;;;4.7;;
25443;SDS011;13368;52.346;4.678;2023-05-15T13:15:00;8.5;;;4.0;;
25443;SDS011;13368;52.346;4.678;2023-05-15T13:20:00;8.2;;;3.9;;
25443;SDS011;13368;52.346;4.678;2023-05-15T13:25:00;11.0;;;4.0;;
25443;SDS011;13368;52.346;4.678;2023-05-15T13:30:00;5.5;;;3.9;;
25443;SDS011;13368;52.346;4.678;2023-05-15T13:35:00;5.2;;;3.6;;
25443;SDS011;13368;52.346;4.678;2023-05-15T13:40:00;5.5;;;3.4;;
25443;SDS011;13368;52.346;4.678;2023-05-15T13:45:00;5.2;;;3.4;;
25443;SDS011;13368;52.346;4.678;2023-05-15T13:50:00;8.2;;;3.2;;
25443;SDS011;13368;52.346;4.678;2023-05-15T13:55:00;5.0;;;3.1;;
25443;SDS011;13368;52.346;4.678;2023-05-15T14:00:00;5.9;;;3.6;;
25443;SDS011;13368;52.346;4.678;2023-05-15T14:05:00;5.1;;;3.3;;
25443;SDS011;13368;52.346;4.678;2023-05-15T14:10:00;7.4;;;4.0;;
25443;SDS011;13368;52.346;4.678;2023-05-15T14:15:00;7.4;;;4.2;;
25443;SDS011;13368;52.346;4.678;2023-05-15T14:20:00;7.2;;;3.9;;
25443;SDS011;13368;52.346;4.678;2023-05-15T14:25:00;5.6;;;3.4;;
25443;SDS011;13368;52.346;4.678;2023-05-15T14:30:00;9.8;;;3.8;;
25443;SDS011;13368;52.346;4.678;2023-05-15T14:35:00;7.8;;;3.7;;
25443;SDS011;13368;52.346;4.678;2023-05-15T14:40:00;12.6;;;4.3;;
25443;SDS011;13368;52.346;4.678;2023-05-15T14:45:00;9.6;;;5.1;;
25443;SDS011;13368;52.346;4.678;2023-05-15T14:50:00;11.6;;;4.0;;
25443;SDS011;13368;52.346;4.678;2023-05-15T14:55:00;9.6;;;4.4;;
25443;SDS011;13368;52.346;4.678;2023-05-15T15:00:00;9.8;;;4.1;;
25443;SDS011;13368;52.346;4.678;2023-05-15T15:05:00;7.8;;;3.3;;
25443;SDS011;13368;52.346;4.678;2023-05-15T15:10:00;9.3;;;3.3;;
25443;SDS011;13368;52.346;4.678;2023-05-15T15:15:00;6.7;;;3.3;;
25443;SDS011;13368;52.346;4.678;2023-05-15T15:20:00;12.9;;;3.5;;
25443;SDS011;13368;52.346;4.678;2023-05-15T15:25:00;9.6;;;3.3;;
25443;SDS011;13368;52.346;4.678;2023-05-15T15:30:00;13.9;;;4.3;;
25443;SDS011;13368;52.346;4.678;2023-05-15T15:35:00;13.6;;;3.2;;
25443;SDS011;13368;52.346;4.678;2023-05-15T15:40:01;11.4;;;4.0;;
25443;SDS011;13368;52.346;4.678;2023-05-15T15:45:00;12.5;;;3.3;;
25443;SDS011;13368;52.346;4.678;2023-05-15T15:50:00;12.2;;;4.4;;
25443;SDS011;13368;52.346;4.678;2023-05-15T15:55:00;12.9;;;4.4;;
25443;SDS011;13368;52.346;4.678;2023-05-15T16:00:00;13.5;;;4.0;;
25443;SDS011;13368;52.346;4.678;2023-05-15T16:05:00;11.0;;;3.9;;
25443;SDS011;13368;52.346;4.678;2023-05-15T16:10:00;12.9;;;4.0;;
25443;SDS011;13368;52.346;4.678;2023-05-15T16:15:00;14.2;;;4.3;;
25443;SDS011;13368;52.346;4.678;2023-05-15T16:20:00;14.0;;;4.4;;
25443;SDS011;13368;52.346;4.678;2023-05-15T16:25:00;13.3;;;4.6;;
25443;SDS011;13368;52.346;4.678;2023-05-15T16:30:00;11.5;;;3.8;;
25443;SDS011;13368;52.346;4.678;2023-05-15T16:35:00;12.3;;;3.9;;
25443;SDS011;13368;52.346;4.678;2023-05-15T16:40:00;10.3;;;3.6;;
25443;SDS011;13368;52.346;4.678;2023-05-15T16:45:00;15.7;;;4.3;;
25443;SDS011;13368;52.346;4.678;2023-05-15T16:50:00;14.6;;;4.3;;
25443;SDS011;13368;52.346;4.678;2023-05-15T16:55:00;8.9;;;3.4;;
25443;SDS011;13368;52.346;4.678;2023-05-15T17:00:00;11.8;;;3.2;;
25443;SDS011;13368;52.346;4.678;2023-05-15T17:05:00;14.6;;;4.1;;
25443;SDS011;13368;52.346;4.678;2023-05-15T17:10:00;11.5;;;3.5;;
25443;SDS011;13368;52.346;4.678;2023-05-15T17:15:00;17.3;;;4.1;;
25443;SDS011;13368;52.346;4.678;2023-05-15T17:20:00;18.1;;;4.0;;
25443;SDS011;13368;52.346;4.678;2023-05-15T17:25:00;9.4;;;3.1;;
25443;SDS011;13368;52.346;4.678;2023-05-15T17:30:00;13.8;;;3.9;;
25443;SDS011;13368;52.346;4.678;2023-05-15T17:35:00;12.2;;;3.9;;
25443;SDS011;13368;52.346;4.678;2023-05-15T17:40:00;14.8;;;4.1;;
25443;SDS011;13368;52.346;4.678;2023-05-15T17:45:00;6.8;;;3.2;;
25443;SDS011;13368;52.346;4.678;2023-05-15T17:50:00;10.1;;;3.0;;
25443;SDS011;13368;52.346;4.678;2023-05-15T17:55:00;13.5;;;4.1;;
25443;SDS011;13368;52.346;4.678;2023-05-15T18:00:00;8.4;;;3.2;;
25443;SDS011;13368;52.346;4.678;2023-05-15T18:05:00;11.3;;;3.7;;
25443;SDS011;13368;52.346;4.678;2023-05-15T18:10:00;8.8;;;3.0;;
25443;SDS011;13368;52.346;4.678;2023-05-15T18:15:00;9.1;;;3.6;;
25443;SDS011;13368;52.346;4.678;2023-05-15T18:20:01;8.2;;;2.7;;
25443;SDS011;13368;52.346;4.678;2023-05-15T18:25:00;9.7;;;2.8;;
25443;SDS011;13368;52.346;4.678;2023-05-15T18:30:00;12.0;;;3.5;;
25443;SDS011;13368;52.346;4.678;2023-05-15T18:35:00;13.6;;;3.3;;
25443;SDS011;13368;52.346;4.678;2023-05-15T18:40:00;9.7;;;3.1;;
25443;SDS011;13368;52.346;4.678;2023-05-15T18:45:00;12.6;;;3.3;;
25443;SDS011;13368;52.346;4.678;2023-05-15T18:50:00;9.9;;;3.2;;
25443;SDS011;13368;52.346;4.678;2023-05-15T18:55:00;12.2;;;3.4;;
25443;SDS011;13368;52.346;4.678;2023-05-15T19:00:00;15.2;;;3.3;;
25443;SDS011;13368;52.346;4.678;2023-05-15T19:05:00;10.9;;;3.4;;
25443;SDS011;13368;52.346;4.678;2023-05-15T19:10:00;14.7;;;4.1;;
25443;SDS011;13368;52.346;4.678;2023-05-15T19:15:00;12.7;;;3.2;;
25443;SDS011;13368;52.346;4.678;2023-05-15T19:20:00;10.7;;;3.6;;
25443;SDS011;13368;52.346;4.678;2023-05-15T19:25:00;8.4;;;2.9;;
25443;SDS011;13368;52.346;4.678;2023-05-15T19:30:00;11.4;;;3.3;;
25443;SDS011;13368;52.346;4.678;2023-05-15T19:35:00;14.6;;;4.4;;
25443;SDS011;13368;52.346;4.678;2023-05-15T19:40:00;12.3;;;4.5;;
25443;SDS011;13368;52.346;4.678;2023-05-15T19:45:00;7.6;;;3.8;;
25443;SDS011;13368;52.346;4.678;2023-05-15T19:50:00;17.7;;;4.0;;
25443;SDS011;13368;52.346;4.678;2023-05-15T19:55:00;10.8;;;3.0;;
25443;SDS011;13368;52.346;4.678;2023-05-15T20:00:00;12.7;;;4.2;;
25443;SDS011;13368;52.346;4.678;2023-05-15T20:05:00;12.6;;;3.9;;
25443;SDS011;13368;52.346;4.678;2023-05-15T20:10:00;10.3;;;3.4;;
25443;SDS011;13368;52.346;4.678;2023-05-15T20:15:00;15.2;;;4.0;;
25443;SDS011;13368;52.346;4.678;2023-05-15T20:20:00;10.9;;;3.4;;
25443;SDS011;13368;52.346;4.678;2023-05-15T20:25:00;16.4;;;4.2;;
25443;SDS011;13368;52.346;4.678;2023-05-15T20:30:00;10.8;;;3.6;;
25443;SDS011;13368;52.346;4.678;2023-05-15T20:35:00;12.9;;;5.0;;
25443;SDS011;13368;52.346;4.678;2023-05-15T20:40:00;14.3;;;4.7;;
25443;SDS011;13368;52.346;4.678;2023-05-15T20:45:00;12.2;;;4.0;;
25443;SDS011;13368;52.346;4.678;2023-05-15T20:50:00;21.6;;;4.2;;
25443;SDS011;13368;52.346;4.678;2023-05-15T20:55:00;12.8;;;3.8;;
25443;SDS011;13368;52.346;4.678;2023-05-15T21:00:00;11.5;;;3.9;;
25443;SDS011;13368;52.346;4.678;2023-05-15T21:05:00;13.9;;;3.4;;
25443;SDS011;13368;52.346;4.678;2023-05-15T21:10:00;16.4;;;3.9;;
25443;SDS011;13368;52.346;4.678;2023-05-15T21:15:00;17.0;;;3.4;;
25443;SDS011;13368;52.346;4.678;2023-05-15T21:20:00;11.0;;;3.9;;
25443;SDS011;13368;52.346;4.678;2023-05-15T21:25:00;14.9;;;3.3;;
25443;SDS011;13368;52.346;4.678;2023-05-15T21:30:00;11.4;;;3.3;;
25443;SDS011;13368;52.346;4.678;2023-05-15T21:35:00;7.7;;;2.9;;
25443;SDS011;13368;52.346;4.678;2023-05-15T21:40:00;10.6;;;3.7;;
25443;SDS011;13368;52.346;4.678;2023-05-15T21:45:00;11.0;;;3.1;;
25443;SDS011;13368;52.346;4.678;2023-05-15T21:50:00;9.1;;;2.8;;
25443;SDS011;13368;52.346;4.678;2023-05-15T21:55:00;18.1;;;3.6;;
25443;SDS011;13368;52.346;4.678;2023-05-15T22:00:00;8.1;;;3.1;;
25443;SDS011;13368;52.346;4.678;2023-05-15T22:05:00;12.7;;;2.9;;
25443;SDS011;13368;52.346;4.678;2023-05-15T22:10:00;11.2;;;3.4;;
25443;SDS011;13368;52.346;4.678;2023-05-15T22:15:00;12.7;;;3.0;;
25443;SDS011;13368;52.346;4.678;2023-05-15T22:20:00;8.7;;;2.6;;
25443;SDS011;13368;52.346;4.678;2023-05-15T22:25:00;9.5;;;2.6;;
25443;SDS011;13368;52.346;4.678;2023-05-15T22:30:00;10.7;;;3.5;;
25443;SDS011;13368;52.346;4.678;2023-05-15T22:35:00;10.3;;;2.9;;
25443;SDS011;13368;52.346;4.678;2023-05-15T22:40:00;10.2;;;3.2;;
25443;SDS011;13368;52.346;4.678;2023-05-15T22:45:00;9.8;;;2.9;;
25443;SDS011;13368;52.346;4.678;2023-05-15T22:50:00;13.2;;;3.1;;
25443;SDS011;13368;52.346;4.678;2023-05-15T23:00:00;12.2;;;3.1;;
25443;SDS011;13368;52.346;4.678;2023-05-15T23:05:00;9.2;;;2.6;;
25443;SDS011;13368;52.346;4.678;2023-05-15T23:10:00;6.0;;;2.8;;
25443;SDS011;13368;52.346;4.678;2023-05-15T23:15:00;13.3;;;3.3;;
25443;SDS011;13368;52.346;4.678;2023-05-15T23:20:00;9.3;;;3.5;;
25443;SDS011;13368;52.346;4.678;2023-05-15T23:25:00;9.8;;;2.7;;
25443;SDS011;13368;52.346;4.678;2023-05-15T23:30:00;8.2;;;2.8;;
25443;SDS011;13368;52.346;4.678;2023-05-15T23:35:00;10.2;;;3.2;;
25443;SDS011;13368;52.346;4.678;2023-05-15T23:40:00;6.6;;;2.9;;
25443;SDS011;13368;52.346;4.678;2023-05-15T23:45:00;10.6;;;2.9;;
25443;SDS011;13368;52.346;4.678;2023-05-15T23:50:00;16.6;;;3.4;;
25443;SDS011;13368;52.346;4.678;2023-05-15T23:55:00;9.3;;;3.3;;
